createdAt,value
2023-03-21T00:00:56.072Z,8.63
2023-03-21T00:01:55.949Z,8.70
2023-03-21T00:02:55.989Z,8.68
2023-03-21T00:03:55.976Z,8.71
2023-03-21T00:05:00.558Z,8.65
2023-03-21T00:05:56.963Z,8.62
2023-03-21T00:06:55.891Z,8.70
2023-03-21T00:07:55.881Z,8.62
2023-03-21T00:08:55.881Z,8.70
2023-03-21T00:10:04.813Z,8.77
2023-03-21T00:10:56.858Z,8.73
2023-03-21T00:11:55.849Z,8.66
2023-03-21T00:12:55.824Z,8.68
2023-03-21T00:13:55.835Z,8.68
2023-03-21T00:14:55.798Z,8.66
2023-03-21T00:16:56.770Z,8.71
2023-03-21T00:17:55.782Z,8.65
2023-03-21T00:18:55.756Z,8.65
2023-03-21T00:19:55.754Z,8.70
2023-03-21T00:22:07.355Z,8.70
2023-03-21T00:22:56.718Z,8.70
2023-03-21T00:23:55.706Z,8.65
2023-03-21T00:24:55.697Z,8.77
2023-03-21T00:25:55.705Z,8.74
2023-03-21T00:27:06.073Z,8.80
2023-03-21T00:28:07.581Z,8.79
2023-03-21T00:28:56.642Z,8.77
2023-03-21T00:29:55.641Z,8.83
2023-03-21T00:30:55.643Z,8.79
2023-03-21T00:31:55.631Z,8.76
2023-03-21T00:32:56.968Z,8.83
2023-03-21T00:33:55.615Z,8.76
2023-03-21T00:35:13.720Z,8.71
2023-03-21T00:36:05.231Z,8.81
2023-03-21T00:36:56.621Z,8.73
2023-03-21T00:37:55.560Z,8.71
2023-03-21T00:38:55.557Z,8.79
2023-03-21T00:39:55.653Z,8.79
2023-03-21T00:40:56.859Z,8.84
2023-03-21T00:41:55.596Z,8.77
2023-03-21T00:42:55.522Z,8.80
2023-03-21T00:43:55.771Z,8.77
2023-03-21T00:44:55.483Z,8.80
2023-03-21T00:45:55.448Z,8.74
2023-03-21T00:47:06.486Z,8.70
2023-03-21T00:47:56.666Z,8.65
2023-03-21T00:48:55.422Z,8.71
2023-03-21T00:49:55.408Z,8.65
2023-03-21T00:50:55.417Z,8.71
2023-03-21T00:51:59.409Z,8.70
2023-03-21T00:52:56.407Z,8.74
2023-03-21T00:53:55.407Z,8.73
2023-03-21T00:54:55.360Z,8.63
2023-03-21T00:55:55.365Z,8.74
2023-03-21T00:56:55.358Z,8.73
2023-03-21T00:58:01.625Z,8.70
2023-03-21T00:58:56.309Z,8.70
2023-03-21T00:59:55.370Z,8.63
2023-03-21T01:00:55.368Z,8.66
2023-03-21T01:01:55.355Z,8.73
2023-03-21T01:03:02.724Z,8.65
2023-03-21T01:03:56.269Z,8.65
2023-03-21T01:04:55.263Z,8.80
2023-03-21T01:05:55.243Z,8.73
2023-03-21T01:06:55.226Z,8.65
2023-03-21T01:07:55.211Z,8.65
2023-03-21T01:08:55.302Z,8.79
2023-03-21T01:09:55.268Z,8.70
2023-03-21T01:10:55.199Z,8.71
2023-03-21T01:11:55.168Z,8.80
2023-03-21T01:12:55.181Z,8.71
2023-03-21T01:14:04.070Z,8.87
2023-03-21T01:14:56.157Z,8.73
2023-03-21T01:15:55.166Z,8.76
2023-03-21T01:16:55.122Z,8.83
2023-03-21T01:17:55.113Z,8.86
2023-03-21T01:18:55.112Z,8.73
2023-03-21T01:19:55.081Z,8.86
2023-03-21T01:20:55.072Z,8.76
2023-03-21T01:21:55.085Z,8.77
2023-03-21T01:22:55.036Z,8.73
2023-03-21T01:23:55.049Z,8.84
2023-03-21T01:25:00.534Z,8.86
2023-03-21T01:25:56.044Z,8.86
2023-03-21T01:26:54.987Z,8.84
2023-03-21T01:27:54.981Z,8.83
2023-03-21T01:28:54.972Z,8.86
2023-03-21T01:29:54.988Z,8.89
2023-03-21T01:30:54.959Z,8.84
2023-03-21T01:31:54.998Z,8.86
2023-03-21T01:32:54.933Z,8.81
2023-03-21T01:33:54.920Z,8.86
2023-03-21T01:34:54.905Z,8.86
2023-03-21T01:36:03.274Z,8.87
2023-03-21T01:36:55.964Z,8.86
2023-03-21T01:37:54.863Z,8.81
2023-03-21T01:38:54.862Z,8.81
2023-03-21T01:39:54.844Z,8.83
2023-03-21T01:40:54.836Z,8.83
2023-03-21T01:41:54.866Z,8.84
2023-03-21T01:42:54.807Z,8.81
2023-03-21T01:43:54.820Z,8.91
2023-03-21T01:44:54.813Z,8.87
2023-03-21T01:45:54.798Z,8.87
2023-03-21T01:47:12.161Z,8.84
2023-03-21T01:47:55.817Z,8.86
2023-03-21T01:48:54.736Z,8.80
2023-03-21T01:49:54.752Z,8.79
2023-03-21T01:50:54.715Z,8.76
2023-03-21T01:51:56.709Z,8.73
2023-03-21T01:52:54.699Z,8.81
2023-03-21T01:53:54.695Z,8.81
2023-03-21T01:54:54.679Z,8.84
2023-03-21T01:55:54.708Z,8.76
2023-03-21T01:56:54.678Z,8.73
2023-03-21T01:58:05.241Z,8.77
2023-03-21T01:58:55.630Z,8.73
2023-03-21T01:59:54.636Z,8.87
2023-03-21T02:00:54.667Z,8.80
2023-03-21T02:01:54.599Z,8.84
2023-03-21T02:02:56.188Z,8.81
2023-03-21T02:03:54.640Z,8.84
2023-03-21T02:04:54.594Z,8.81
2023-03-21T02:05:54.562Z,8.87
2023-03-21T02:06:54.558Z,8.84
2023-03-21T02:07:54.548Z,8.84
2023-03-21T02:08:54.531Z,8.87
2023-03-21T02:09:54.525Z,8.84
2023-03-21T02:10:54.497Z,8.83
2023-03-21T02:11:54.492Z,8.83
2023-03-21T02:12:54.470Z,8.84
2023-03-21T02:14:05.726Z,8.73
2023-03-21T02:14:55.483Z,8.77
2023-03-21T02:15:54.441Z,8.79
2023-03-21T02:16:54.626Z,8.73
2023-03-21T02:17:54.440Z,8.73
2023-03-21T02:18:54.410Z,8.74
2023-03-21T02:19:54.413Z,8.89
2023-03-21T02:20:54.388Z,8.83
2023-03-21T02:21:54.375Z,8.83
2023-03-21T02:22:54.378Z,8.86
2023-03-21T02:23:54.358Z,8.76
2023-03-21T02:25:01.328Z,8.83
2023-03-21T02:25:55.386Z,8.76
2023-03-21T02:27:03.677Z,8.81
2023-03-21T02:27:55.308Z,8.74
2023-03-21T02:28:54.291Z,8.76
2023-03-21T02:29:54.303Z,8.83
2023-03-21T02:30:54.682Z,8.73
2023-03-21T02:31:55.815Z,8.76
2023-03-21T02:32:54.277Z,8.84
2023-03-21T02:33:54.238Z,8.84
2023-03-21T02:34:54.232Z,8.84
2023-03-21T02:35:56.817Z,8.84
2023-03-21T02:36:54.200Z,8.83
2023-03-21T02:38:00.034Z,8.86
2023-03-21T02:38:55.189Z,8.91
2023-03-21T02:39:54.167Z,8.76
2023-03-21T02:40:54.181Z,8.81
2023-03-21T02:41:54.151Z,8.92
2023-03-21T02:42:59.957Z,8.73
2023-03-21T02:43:55.123Z,8.76
2023-03-21T02:44:54.112Z,8.86
2023-03-21T02:45:54.176Z,8.89
2023-03-21T02:47:04.658Z,8.87
2023-03-21T02:47:55.106Z,8.87
2023-03-21T02:48:54.134Z,8.84
2023-03-21T02:49:54.050Z,8.83
2023-03-21T02:50:54.075Z,8.89
2023-03-21T02:51:54.795Z,8.83
2023-03-21T02:52:54.058Z,8.86
2023-03-21T02:54:20.038Z,8.80
2023-03-21T02:54:54.995Z,8.91
2023-03-21T02:55:53.992Z,8.74
2023-03-21T02:56:54.016Z,8.83
2023-03-21T02:57:53.999Z,8.74
2023-03-21T02:58:53.987Z,8.79
2023-03-21T03:00:00.149Z,8.76
2023-03-21T03:00:54.935Z,8.71
2023-03-21T03:01:53.979Z,8.76
2023-03-21T03:03:06.303Z,8.76
2023-03-21T03:03:54.969Z,8.83
2023-03-21T03:04:53.901Z,8.74
2023-03-21T03:05:53.892Z,8.74
2023-03-21T03:06:53.924Z,8.83
2023-03-21T03:07:53.858Z,8.86
2023-03-21T03:09:02.224Z,8.89
2023-03-21T03:09:54.836Z,8.80
2023-03-21T03:10:53.842Z,8.86
2023-03-21T03:11:53.949Z,8.80
2023-03-21T03:12:53.813Z,8.81
2023-03-21T03:13:53.820Z,8.84
2023-03-21T03:15:03.065Z,8.87
2023-03-21T03:15:54.918Z,8.84
2023-03-21T03:16:53.778Z,8.92
2023-03-21T03:17:53.793Z,8.81
2023-03-21T03:18:53.746Z,8.84
2023-03-21T03:19:53.745Z,8.86
2023-03-21T03:20:53.713Z,8.71
2023-03-21T03:21:53.709Z,8.79
2023-03-21T03:22:53.799Z,8.79
2023-03-21T03:23:53.684Z,8.77
2023-03-21T03:24:53.664Z,8.73
2023-03-21T03:25:53.662Z,8.76
2023-03-21T03:26:53.680Z,8.71
2023-03-21T03:27:53.664Z,8.80
2023-03-21T03:28:53.620Z,8.89
2023-03-21T03:29:53.609Z,8.77
2023-03-21T03:31:07.395Z,8.83
2023-03-21T03:31:54.715Z,8.83
2023-03-21T03:32:53.605Z,8.89
2023-03-21T03:33:53.580Z,8.76
2023-03-21T03:34:53.554Z,8.74
2023-03-21T03:36:04.916Z,8.83
2023-03-21T03:36:54.578Z,8.81
2023-03-21T03:37:53.516Z,8.71
2023-03-21T03:38:53.500Z,8.65
2023-03-21T03:39:53.491Z,8.62
2023-03-21T03:40:53.496Z,8.73
2023-03-21T03:42:25.405Z,8.70
2023-03-21T03:42:54.478Z,8.66
2023-03-21T03:43:53.451Z,8.68
2023-03-21T03:44:53.444Z,8.63
2023-03-21T03:45:53.425Z,8.66
2023-03-21T03:46:53.571Z,8.66
2023-03-21T03:47:57.195Z,8.55
2023-03-21T03:48:53.424Z,8.61
2023-03-21T03:49:53.412Z,8.61
2023-03-21T03:50:53.373Z,8.61
2023-03-21T03:51:53.355Z,8.61
2023-03-21T03:52:56.553Z,8.55
2023-03-21T03:53:53.340Z,8.56
2023-03-21T03:54:53.361Z,8.62
2023-03-21T03:55:53.320Z,8.61
2023-03-21T03:56:53.302Z,8.55
2023-03-21T03:57:53.316Z,8.50
2023-03-21T03:58:53.316Z,8.62
2023-03-21T03:59:53.266Z,8.61
2023-03-21T04:00:53.261Z,8.62
2023-03-21T04:01:53.287Z,8.61
2023-03-21T04:02:53.447Z,8.65
2023-03-21T04:04:06.771Z,8.56
2023-03-21T04:04:54.217Z,8.61
2023-03-21T04:05:53.235Z,8.56
2023-03-21T04:06:53.209Z,8.58
2023-03-21T04:07:53.195Z,8.52
2023-03-21T04:08:53.171Z,8.50
2023-03-21T04:09:53.159Z,8.56
2023-03-21T04:10:53.172Z,8.61
2023-03-21T04:11:53.169Z,8.65
2023-03-21T04:12:53.127Z,8.59
2023-03-21T04:13:53.152Z,8.47
2023-03-21T04:14:53.344Z,8.47
2023-03-21T04:15:53.119Z,8.47
2023-03-21T04:16:53.077Z,8.50
2023-03-21T04:17:53.100Z,8.47
2023-03-21T04:18:53.085Z,8.48
2023-03-21T04:20:02.557Z,8.47
2023-03-21T04:20:54.050Z,8.41
2023-03-21T04:21:53.089Z,8.44
2023-03-21T04:22:53.124Z,8.37
2023-03-21T04:23:53.024Z,8.36
2023-03-21T04:24:52.989Z,8.41
2023-03-21T04:25:57.033Z,8.41
2023-03-21T04:26:52.971Z,8.41
2023-03-21T04:27:52.995Z,8.33
2023-03-21T04:28:52.981Z,8.34
2023-03-21T04:29:53.090Z,8.33
2023-03-21T04:31:03.299Z,8.36
2023-03-21T04:31:53.980Z,8.37
2023-03-21T04:32:52.907Z,8.37
2023-03-21T04:33:52.902Z,8.40
2023-03-21T04:34:52.890Z,8.36
2023-03-21T04:35:52.967Z,8.40
2023-03-21T04:36:52.896Z,8.44
2023-03-21T04:37:52.868Z,8.41
2023-03-21T04:38:52.841Z,8.48
2023-03-21T04:39:52.830Z,8.47
2023-03-21T04:40:52.855Z,8.41
2023-03-21T04:41:52.830Z,8.43
2023-03-21T04:42:52.793Z,8.38
2023-03-21T04:43:52.788Z,8.44
2023-03-21T04:44:52.771Z,8.30
2023-03-21T04:45:52.826Z,8.29
2023-03-21T04:46:52.753Z,8.38
2023-03-21T04:47:52.747Z,8.43
2023-03-21T04:48:52.729Z,8.41
2023-03-21T04:49:52.739Z,8.38
2023-03-21T04:50:52.696Z,8.38
2023-03-21T04:51:52.692Z,8.38
2023-03-21T04:52:52.720Z,8.40
2023-03-21T04:53:52.748Z,8.37
2023-03-21T04:54:52.668Z,8.38
2023-03-21T04:55:55.314Z,8.38
2023-03-21T04:56:52.628Z,8.40
2023-03-21T04:57:52.639Z,8.37
2023-03-21T04:58:52.642Z,8.43
2023-03-21T04:59:52.680Z,8.52
2023-03-21T05:00:52.680Z,8.44
2023-03-21T05:01:52.562Z,8.45
2023-03-21T05:02:52.564Z,8.44
2023-03-21T05:03:52.585Z,8.44
2023-03-21T05:04:52.548Z,8.38
2023-03-21T05:05:52.546Z,8.44
2023-03-21T05:06:52.523Z,8.44
2023-03-21T05:07:52.511Z,8.47
2023-03-21T05:08:52.514Z,8.40
2023-03-21T05:09:52.529Z,8.41
2023-03-21T05:10:52.526Z,8.47
2023-03-21T05:11:52.454Z,8.44
2023-03-21T05:12:52.464Z,8.52
2023-03-21T05:13:52.449Z,8.48
2023-03-21T05:14:52.507Z,8.40
2023-03-21T05:15:52.438Z,8.41
2023-03-21T05:16:52.428Z,8.50
2023-03-21T05:17:52.392Z,8.45
2023-03-21T05:18:52.423Z,8.43
2023-03-21T05:19:52.380Z,8.41
2023-03-21T05:20:52.378Z,8.45
2023-03-21T05:21:52.373Z,8.41
2023-03-21T05:22:52.339Z,8.50
2023-03-21T05:23:52.327Z,8.47
2023-03-21T05:24:52.308Z,8.47
2023-03-21T05:25:52.330Z,8.43
2023-03-21T05:26:52.337Z,8.45
2023-03-21T05:27:52.278Z,8.43
2023-03-21T05:28:52.265Z,8.38
2023-03-21T05:29:52.278Z,8.50
2023-03-21T05:30:52.342Z,8.50
2023-03-21T05:31:52.257Z,8.45
2023-03-21T05:32:52.215Z,8.47
2023-03-21T05:33:52.207Z,8.55
2023-03-21T05:34:52.205Z,8.44
2023-03-21T05:35:52.241Z,8.44
2023-03-21T05:36:52.213Z,8.44
2023-03-21T05:37:52.185Z,8.48
2023-03-21T05:38:52.152Z,8.44
2023-03-21T05:39:52.145Z,8.38
2023-03-21T05:40:52.131Z,8.40
2023-03-21T05:41:52.167Z,8.43
2023-03-21T05:42:52.119Z,8.43
2023-03-21T05:43:52.097Z,8.41
2023-03-21T05:44:52.085Z,8.47
2023-03-21T05:45:52.155Z,8.52
2023-03-21T05:46:52.092Z,8.50
2023-03-21T05:47:52.090Z,8.48
2023-03-21T05:48:52.079Z,8.55
2023-03-21T05:49:52.026Z,8.45
2023-03-21T05:50:52.040Z,8.44
2023-03-21T05:51:52.011Z,8.52
2023-03-21T05:52:52.030Z,8.53
2023-03-21T05:53:52.007Z,8.53
2023-03-21T05:54:51.984Z,8.55
2023-03-21T05:55:51.966Z,8.47
2023-03-21T05:56:51.950Z,8.56
2023-03-21T05:57:51.980Z,8.53
2023-03-21T05:58:51.951Z,8.61
2023-03-21T05:59:51.926Z,8.63
2023-03-21T06:00:51.903Z,8.53
2023-03-21T06:01:51.920Z,8.52
2023-03-21T06:02:51.975Z,8.58
2023-03-21T06:03:51.913Z,8.65
2023-03-21T06:04:51.864Z,8.58
2023-03-21T06:05:51.877Z,8.61
2023-03-21T06:06:51.855Z,8.63
2023-03-21T06:07:51.828Z,8.61
2023-03-21T06:08:51.821Z,8.71
2023-03-21T06:09:51.816Z,8.68
2023-03-21T06:10:51.833Z,8.70
2023-03-21T06:11:51.778Z,8.74
2023-03-21T06:12:51.775Z,8.70
2023-03-21T06:13:51.775Z,8.84
2023-03-21T06:14:51.776Z,8.77
2023-03-21T06:15:51.834Z,8.71
2023-03-21T06:16:51.792Z,8.86
2023-03-21T06:17:51.718Z,8.89
2023-03-21T06:18:51.707Z,8.84
2023-03-21T06:19:51.694Z,8.92
2023-03-21T06:20:51.705Z,8.96
2023-03-21T06:21:51.714Z,9.08
2023-03-21T06:22:51.676Z,9.05
2023-03-21T06:23:51.681Z,9.17
2023-03-21T06:24:51.639Z,9.15
2023-03-21T06:25:51.633Z,9.21
2023-03-21T06:26:51.620Z,9.17
2023-03-21T06:27:51.619Z,9.21
2023-03-21T06:28:51.626Z,9.20
2023-03-21T06:29:51.599Z,9.31
2023-03-21T06:30:51.562Z,9.39
2023-03-21T06:31:51.585Z,9.32
2023-03-21T06:32:51.572Z,9.29
2023-03-21T06:33:51.539Z,9.38
2023-03-21T06:34:51.537Z,9.42
2023-03-21T06:35:51.631Z,9.54
2023-03-21T06:36:51.526Z,9.50
2023-03-21T06:37:51.488Z,9.53
2023-03-21T06:38:51.495Z,9.56
2023-03-21T06:39:51.464Z,9.48
2023-03-21T06:40:51.567Z,9.47
2023-03-21T06:41:51.469Z,9.50
2023-03-21T06:42:51.577Z,9.53
2023-03-21T06:43:51.454Z,9.57
2023-03-21T06:44:51.426Z,9.57
2023-03-21T06:45:51.602Z,9.56
2023-03-21T06:46:51.486Z,9.50
2023-03-21T06:47:51.544Z,9.60
2023-03-21T06:48:51.366Z,9.58
2023-03-21T06:49:51.358Z,9.65
2023-03-21T06:50:51.349Z,9.61
2023-03-21T06:51:51.383Z,9.64
2023-03-21T06:52:51.331Z,9.58
2023-03-21T06:53:51.319Z,9.64
2023-03-21T06:54:51.301Z,9.71
2023-03-21T06:55:51.312Z,9.79
2023-03-21T06:56:51.281Z,9.79
2023-03-21T06:57:51.260Z,9.79
2023-03-21T06:58:51.258Z,9.79
2023-03-21T06:59:51.240Z,9.79
2023-03-21T07:00:51.369Z,9.90
2023-03-21T07:01:51.257Z,9.90
2023-03-21T07:02:51.438Z,9.94
2023-03-21T07:03:51.194Z,9.99
2023-03-21T07:04:51.213Z,9.93
2023-03-21T07:05:51.170Z,9.96
2023-03-21T07:06:51.178Z,9.90
2023-03-21T07:07:51.164Z,9.89
2023-03-21T07:08:51.140Z,9.81
2023-03-21T07:09:51.137Z,9.89
2023-03-21T07:10:51.136Z,9.79
2023-03-21T07:11:51.151Z,9.83
2023-03-21T07:12:51.103Z,9.83
2023-03-21T07:13:51.106Z,9.84
2023-03-21T07:14:51.069Z,9.90
2023-03-21T07:15:51.061Z,9.93
2023-03-21T07:16:51.173Z,9.86
2023-03-21T07:17:51.055Z,9.94
2023-03-21T07:18:51.047Z,9.91
2023-03-21T07:19:51.014Z,9.93
2023-03-21T07:20:51.167Z,9.96
2023-03-21T07:21:51.023Z,9.91
2023-03-21T07:22:50.978Z,9.90
2023-03-21T07:23:50.975Z,9.87
2023-03-21T07:25:03.994Z,9.90
2023-03-21T07:25:52.068Z,9.97
2023-03-21T07:26:50.940Z,9.90
2023-03-21T07:27:50.925Z,9.93
2023-03-21T07:28:50.913Z,10.04
2023-03-21T07:29:50.902Z,9.91
2023-03-21T07:30:50.916Z,10.01
2023-03-21T07:31:50.924Z,10.01
2023-03-21T07:32:50.871Z,10.02
2023-03-21T07:33:50.873Z,10.04
2023-03-21T07:34:50.849Z,10.02
2023-03-21T07:35:50.905Z,10.05
2023-03-21T07:36:50.832Z,9.94
2023-03-21T07:37:50.818Z,10.02
2023-03-21T07:38:50.811Z,10.11
2023-03-21T07:39:50.792Z,10.04
2023-03-21T07:40:50.794Z,10.01
2023-03-21T07:41:50.788Z,10.01
2023-03-21T07:42:50.781Z,9.97
2023-03-21T07:43:50.759Z,10.08
2023-03-21T07:44:50.764Z,10.02
2023-03-21T07:45:50.758Z,10.14
2023-03-21T07:46:50.705Z,10.09
2023-03-21T07:47:50.772Z,10.18
2023-03-21T07:48:50.678Z,10.17
2023-03-21T07:49:50.695Z,10.22
2023-03-21T07:50:50.674Z,10.18
2023-03-21T07:51:50.647Z,10.20
2023-03-21T07:52:50.652Z,10.18
2023-03-21T07:53:50.646Z,10.23
2023-03-21T07:54:50.617Z,10.15
2023-03-21T07:55:50.609Z,10.14
2023-03-21T07:56:50.622Z,10.26
2023-03-21T07:57:50.590Z,10.27
2023-03-21T07:58:50.570Z,10.25
2023-03-21T07:59:50.557Z,10.22
2023-03-21T08:00:50.573Z,10.20
2023-03-21T08:01:50.580Z,10.27
2023-03-21T08:02:50.541Z,10.29
2023-03-21T08:03:50.589Z,10.29
2023-03-21T08:04:50.501Z,10.26
2023-03-21T08:05:50.544Z,10.26
2023-03-21T08:06:50.505Z,10.36
2023-03-21T08:07:50.465Z,10.38
2023-03-21T08:08:50.484Z,10.38
2023-03-21T08:09:50.441Z,10.34
2023-03-21T08:10:50.449Z,10.40
2023-03-21T08:11:50.420Z,10.36
2023-03-21T08:12:50.423Z,10.45
2023-03-21T08:13:50.403Z,10.38
2023-03-21T08:14:50.438Z,10.38
2023-03-21T08:15:50.420Z,10.44
2023-03-21T08:16:50.526Z,10.48
2023-03-21T08:17:50.368Z,10.51
2023-03-21T08:18:50.466Z,10.52
2023-03-21T08:19:50.358Z,10.52
2023-03-21T08:20:50.503Z,10.47
2023-03-21T08:21:50.324Z,10.56
2023-03-21T08:22:50.516Z,10.56
2023-03-21T08:23:50.322Z,10.61
2023-03-21T08:24:50.547Z,10.64
2023-03-21T08:25:50.270Z,10.78
2023-03-21T08:26:50.308Z,10.71
2023-03-21T08:27:50.270Z,10.85
2023-03-21T08:28:50.254Z,10.81
2023-03-21T08:29:50.219Z,10.92
2023-03-21T08:30:50.261Z,10.86
2023-03-21T08:31:50.225Z,10.91
2023-03-21T08:32:50.182Z,10.92
2023-03-21T08:33:50.180Z,11.03
2023-03-21T08:34:50.164Z,11.04
2023-03-21T08:35:50.201Z,11.11
2023-03-21T08:36:50.171Z,11.32
2023-03-21T08:37:50.155Z,11.35
2023-03-21T08:38:50.124Z,11.35
2023-03-21T08:39:50.181Z,11.33
2023-03-21T08:40:50.096Z,11.28
2023-03-21T08:41:50.136Z,11.42
2023-03-21T08:42:50.084Z,11.47
2023-03-21T08:43:50.066Z,11.43
2023-03-21T08:44:50.056Z,11.46
2023-03-21T08:45:50.080Z,11.57
2023-03-21T08:46:50.048Z,11.60
2023-03-21T08:47:50.053Z,11.73
2023-03-21T08:48:50.181Z,11.83
2023-03-21T08:49:49.994Z,11.82
2023-03-21T08:50:50.035Z,11.76
2023-03-21T08:51:49.964Z,11.88
2023-03-21T08:52:49.997Z,11.91
2023-03-21T08:53:50.057Z,11.85
2023-03-21T08:54:49.966Z,11.88
2023-03-21T08:55:49.940Z,11.83
2023-03-21T08:56:49.922Z,11.94
2023-03-21T08:57:49.901Z,12.02
2023-03-21T08:58:49.895Z,12.12
2023-03-21T08:59:49.883Z,12.07
2023-03-21T09:00:49.901Z,12.12
2023-03-21T09:01:49.904Z,12.14
2023-03-21T09:02:49.851Z,12.14
2023-03-21T09:03:49.836Z,12.19
2023-03-21T09:04:49.876Z,12.14
2023-03-21T09:05:49.834Z,12.23
2023-03-21T09:06:49.840Z,12.12
2023-03-21T09:07:49.831Z,12.10
2023-03-21T09:08:49.788Z,12.02
2023-03-21T09:09:58.089Z,12.19
2023-03-21T09:10:50.848Z,12.05
2023-03-21T09:11:52.089Z,12.23
2023-03-21T09:12:49.745Z,12.23
2023-03-21T09:13:49.735Z,12.24
2023-03-21T09:14:49.706Z,12.32
2023-03-21T09:15:49.738Z,12.29
2023-03-21T09:16:49.682Z,12.29
2023-03-21T09:17:49.710Z,12.29
2023-03-21T09:18:49.705Z,12.41
2023-03-21T09:19:49.698Z,12.62
2023-03-21T09:20:49.648Z,12.53
2023-03-21T09:21:49.642Z,12.70
2023-03-21T09:22:49.637Z,12.82
2023-03-21T09:23:49.611Z,12.79
2023-03-21T09:24:49.625Z,12.89
2023-03-21T09:25:49.601Z,12.96
2023-03-21T09:26:49.577Z,12.85
2023-03-21T09:27:49.565Z,12.96
2023-03-21T09:28:49.552Z,13.05
2023-03-21T09:29:49.615Z,13.30
2023-03-21T09:30:49.535Z,13.15
2023-03-21T09:31:49.538Z,13.11
2023-03-21T09:32:49.576Z,13.25
2023-03-21T09:33:49.496Z,13.29
2023-03-21T09:34:49.477Z,13.28
2023-03-21T09:35:51.741Z,13.17
2023-03-21T09:36:49.462Z,13.04
2023-03-21T09:37:49.456Z,13.11
2023-03-21T09:38:49.467Z,13.22
2023-03-21T09:39:49.425Z,13.28
2023-03-21T09:40:49.446Z,13.30
2023-03-21T09:41:49.433Z,13.25
2023-03-21T09:42:49.419Z,13.33
2023-03-21T09:43:49.401Z,13.22
2023-03-21T09:44:49.368Z,13.05
2023-03-21T09:45:49.364Z,12.95
2023-03-21T09:46:49.382Z,12.87
2023-03-21T09:47:49.696Z,12.86
2023-03-21T09:48:56.837Z,12.95
2023-03-21T09:49:50.311Z,12.89
2023-03-21T09:50:49.353Z,12.95
2023-03-21T09:51:49.299Z,13.01
2023-03-21T09:52:49.303Z,13.03
2023-03-21T09:53:49.292Z,13.01
2023-03-21T09:54:49.273Z,12.95
2023-03-21T09:55:49.261Z,13.03
2023-03-21T09:56:49.267Z,13.08
2023-03-21T09:57:49.240Z,13.12
2023-03-21T09:58:49.231Z,13.11
2023-03-21T09:59:49.202Z,13.29
2023-03-21T10:00:49.261Z,13.30
2023-03-21T10:01:49.242Z,13.26
2023-03-21T10:02:49.163Z,13.30
2023-03-21T10:03:49.180Z,13.25
2023-03-21T10:04:49.250Z,13.28
2023-03-21T10:05:49.170Z,13.08
2023-03-21T10:06:49.118Z,13.07
2023-03-21T10:07:49.107Z,13.12
2023-03-21T10:08:49.115Z,13.12
2023-03-21T10:09:49.131Z,13.17
2023-03-21T10:10:49.069Z,13.39
2023-03-21T10:11:49.058Z,13.48
2023-03-21T10:12:49.079Z,13.51
2023-03-21T10:13:49.056Z,13.45
2023-03-21T10:14:49.060Z,13.49
2023-03-21T10:15:49.028Z,13.54
2023-03-21T10:16:49.079Z,13.48
2023-03-21T10:17:48.990Z,13.45
2023-03-21T10:18:49.092Z,13.51
2023-03-21T10:19:48.993Z,13.64
2023-03-21T10:20:48.959Z,13.63
2023-03-21T10:22:00.932Z,13.79
2023-03-21T10:22:49.928Z,13.62
2023-03-21T10:23:48.917Z,13.66
2023-03-21T10:24:48.961Z,13.57
2023-03-21T10:25:48.917Z,13.71
2023-03-21T10:26:48.898Z,13.64
2023-03-21T10:27:48.877Z,13.57
2023-03-21T10:28:53.197Z,13.73
2023-03-21T10:29:48.874Z,13.81
2023-03-21T10:30:48.840Z,13.70
2023-03-21T10:31:48.862Z,13.71
2023-03-21T10:32:48.858Z,13.73
2023-03-21T10:33:48.842Z,13.87
2023-03-21T10:34:48.818Z,13.81
2023-03-21T10:35:48.782Z,13.84
2023-03-21T10:36:48.769Z,13.91
2023-03-21T10:37:48.764Z,13.92
2023-03-21T10:38:48.762Z,13.96
2023-03-21T10:39:48.748Z,13.99
2023-03-21T10:40:48.728Z,13.84
2023-03-21T10:41:48.724Z,13.85
2023-03-21T10:42:48.703Z,13.81
2023-03-21T10:43:48.725Z,13.79
2023-03-21T10:44:48.737Z,13.88
2023-03-21T10:45:48.889Z,13.92
2023-03-21T10:46:48.987Z,14.15
2023-03-21T10:47:48.978Z,14.00
2023-03-21T10:48:48.760Z,13.89
2023-03-21T10:50:12.084Z,13.78
2023-03-21T10:50:49.657Z,13.79
2023-03-21T10:51:48.631Z,13.85
2023-03-21T10:52:48.588Z,13.97
2023-03-21T10:53:48.580Z,14.04
2023-03-21T10:54:48.569Z,14.10
2023-03-21T10:55:48.556Z,14.17
2023-03-21T10:56:48.566Z,14.20
2023-03-21T10:57:48.541Z,14.27
2023-03-21T10:58:48.519Z,14.27
2023-03-21T10:59:48.505Z,14.40
2023-03-21T11:00:48.562Z,14.45
2023-03-21T11:01:48.532Z,14.51
2023-03-21T11:02:48.559Z,14.64
2023-03-21T11:03:48.473Z,14.89
2023-03-21T11:04:48.480Z,14.95
2023-03-21T11:05:48.465Z,15.02
2023-03-21T11:06:48.425Z,15.11
2023-03-21T11:07:48.426Z,15.16
2023-03-21T11:08:48.446Z,15.07
2023-03-21T11:09:49.165Z,14.99
2023-03-21T11:10:48.425Z,14.86
2023-03-21T11:11:48.379Z,14.77
2023-03-21T11:12:48.386Z,14.61
2023-03-21T11:13:48.404Z,14.62
2023-03-21T11:14:48.346Z,14.64
2023-03-21T11:15:48.371Z,14.72
2023-03-21T11:16:48.410Z,14.65
2023-03-21T11:17:48.362Z,14.62
2023-03-21T11:18:48.315Z,14.61
2023-03-21T11:19:48.309Z,14.69
2023-03-21T11:20:48.277Z,14.77
2023-03-21T11:21:48.263Z,14.68
2023-03-21T11:22:48.311Z,14.58
2023-03-21T11:23:48.311Z,14.50
2023-03-21T11:24:48.240Z,14.55
2023-03-21T11:25:48.225Z,14.47
2023-03-21T11:26:48.265Z,14.51
2023-03-21T11:27:48.200Z,14.57
2023-03-21T11:28:48.194Z,14.50
2023-03-21T11:29:48.185Z,14.55
2023-03-21T11:30:48.231Z,14.51
2023-03-21T11:31:48.203Z,14.43
2023-03-21T11:32:48.155Z,14.21
2023-03-21T11:33:48.153Z,14.25
2023-03-21T11:34:48.152Z,14.18
2023-03-21T11:35:48.156Z,14.14
2023-03-21T11:36:48.107Z,14.21
2023-03-21T11:37:48.199Z,14.20
2023-03-21T11:38:48.137Z,14.14
2023-03-21T11:39:48.111Z,14.07
2023-03-21T11:40:48.056Z,14.10
2023-03-21T11:41:48.079Z,14.07
2023-03-21T11:42:48.071Z,14.10
2023-03-21T11:43:48.123Z,14.14
2023-03-21T11:44:48.009Z,14.07
2023-03-21T11:45:48.041Z,14.09
2023-03-21T11:46:47.992Z,14.10
2023-03-21T11:47:48.021Z,14.02
2023-03-21T11:48:47.996Z,13.95
2023-03-21T11:49:49.613Z,13.87
2023-03-21T11:50:47.955Z,13.97
2023-03-21T11:51:47.941Z,14.00
2023-03-21T11:52:47.951Z,13.97
2023-03-21T11:53:47.949Z,14.00
2023-03-21T11:54:47.894Z,13.97
2023-03-21T11:55:47.911Z,14.02
2023-03-21T11:56:47.889Z,14.10
2023-03-21T11:57:47.883Z,13.99
2023-03-21T11:58:47.925Z,14.02
2023-03-21T11:59:47.836Z,13.95
2023-03-21T12:00:47.828Z,13.92
2023-03-21T12:01:47.812Z,13.85
2023-03-21T12:02:47.845Z,13.77
2023-03-21T12:03:49.060Z,13.78
2023-03-21T12:04:47.799Z,13.85
2023-03-21T12:05:47.802Z,13.79
2023-03-21T12:06:47.756Z,13.64
2023-03-21T12:07:47.747Z,13.60
2023-03-21T12:08:47.743Z,13.70
2023-03-21T12:09:47.750Z,13.73
2023-03-21T12:10:47.777Z,13.52
2023-03-21T12:11:47.705Z,13.57
2023-03-21T12:12:47.730Z,13.52
2023-03-21T12:13:48.237Z,13.46
2023-03-21T12:14:47.680Z,13.51
2023-03-21T12:15:47.704Z,13.52
2023-03-21T12:16:47.682Z,13.52
2023-03-21T12:17:47.652Z,13.52
2023-03-21T12:18:47.643Z,13.46
2023-03-21T12:19:47.610Z,13.52
2023-03-21T12:20:47.606Z,13.45
2023-03-21T12:21:47.815Z,13.45
2023-03-21T12:22:47.598Z,13.55
2023-03-21T12:23:48.141Z,13.49
2023-03-21T12:24:47.571Z,13.51
2023-03-21T12:25:47.553Z,13.46
2023-03-21T12:26:47.537Z,13.51
2023-03-21T12:27:47.521Z,13.57
2023-03-21T12:28:47.506Z,13.51
2023-03-21T12:29:47.528Z,13.44
2023-03-21T12:30:47.502Z,13.42
2023-03-21T12:31:47.550Z,13.49
2023-03-21T12:32:47.602Z,13.26
2023-03-21T12:33:47.503Z,13.33
2023-03-21T12:34:47.499Z,13.25
2023-03-21T12:35:47.444Z,13.29
2023-03-21T12:36:47.417Z,13.25
2023-03-21T12:37:47.525Z,13.10
2023-03-21T12:38:47.424Z,13.12
2023-03-21T12:39:47.375Z,13.07
2023-03-21T12:40:47.394Z,13.12
2023-03-21T12:41:47.362Z,13.07
2023-03-21T12:42:47.357Z,13.04
2023-03-21T12:43:47.334Z,13.14
2023-03-21T12:44:47.323Z,13.10
2023-03-21T12:45:47.899Z,13.08
2023-03-21T12:46:47.387Z,13.05
2023-03-21T12:47:47.330Z,13.08
2023-03-21T12:48:47.296Z,13.03
2023-03-21T12:49:47.269Z,13.07
2023-03-21T12:50:47.258Z,13.03
2023-03-21T12:51:47.251Z,13.01
2023-03-21T12:52:47.235Z,13.03
2023-03-21T12:53:47.330Z,13.08
2023-03-21T12:54:47.229Z,13.05
2023-03-21T12:55:47.194Z,13.10
2023-03-21T12:56:47.187Z,13.01
2023-03-21T12:57:56.539Z,12.97
2023-03-21T12:58:48.160Z,12.95
2023-03-21T12:59:47.180Z,13.11
2023-03-21T13:00:47.193Z,13.03
2023-03-21T13:01:47.125Z,13.04
2023-03-21T13:02:47.145Z,12.92
2023-03-21T13:03:47.186Z,12.92
2023-03-21T13:04:47.181Z,12.95
2023-03-21T13:05:47.095Z,12.89
2023-03-21T13:06:47.085Z,12.92
2023-03-21T13:07:47.053Z,13.01
2023-03-21T13:08:47.062Z,13.01
2023-03-21T13:09:47.193Z,13.03